Latest Coastal Weather Observations for Browse Island

IDD60701

Issued at 2:45 am CST Sunday 24 August 2014 (issued every 10 minutes, with the page automatically refreshed every 10 minutes)

About coastal observations | Map of coastal stations | Coastal observations for NT | Marine services | Other Formats
Station Details ID: 200784 Name: BROWSE ISLAND Lat: -14.11 Lon: 123.55 Height: 3.7 m
Data from the previous 72 hours. | See also: Recent months for locations in Northern Territory
Date/Time
CST
Temp

°C
Wind Pressure Rain
since 9am
mm
Weather Cloud Vis
km
Sea
Height
m
Swell
Dir
 
Speed
knots
Gust
knots
hPa Trend Height
m
Period
s
Dir
24/02:30am 24.6 E 7 9 1015.2 - - - - - - - - -
24/02:00am 24.9 ENE 7 9 1015.4 - - - - - - - - -
24/01:30am 25.0 ENE 7 9 1015.4 - - - - - - - - -
24/01:00am 24.9 NE 7 8 1015.6 - - - - - - - - -
24/12:30am 25.2 ENE 5 6 1015.6 - - - - - - - - -
24/12:00am 25.2 NE 4 5 1015.8 - - - - - - - - -
 
Date/Time
CST
Temp

°C
Wind Pressure Rain
since 9am
mm
Weather Cloud Vis
km
Sea
Height
m
Swell
Dir
 
Speed
knots
Gust
knots
hPa Trend Height
m
Period
s
Dir
23/11:30pm 25.0 CALM 0 3 1015.6 - - - - - - - - -
23/11:00pm 25.1 CALM 0 0 1015.9 - - - - - - - - -
23/10:30pm 25.0 NE 2 3 1015.8 - - - - - - - - -
23/10:00pm 25.4 NNE 4 6 1016.1 - - - - - - - - -
23/09:30pm 25.4 NNE 3 4 1015.7 - - - - - - - - -
23/09:00pm 25.4 NNE 4 5 1015.5 - - - - - - - - -
23/08:30pm 25.5 NNE 4 6 1014.9 - - - - - - - - -
23/08:00pm 25.5 NNE 5 6 1014.9 - - - - - - - - -
23/07:30pm 25.2 NE 6 7 1014.5 - - - - - - - - -
23/07:00pm 25.5 NE 7 8 1014.4 - - - - - - - - -
23/06:30pm 25.8 ENE 8 11 1014.1 - - - - - - - - -
23/06:00pm 26.5 ENE 7 10 1014.2 - - - - - - - - -
23/05:30pm 26.6 ENE 9 11 1013.9 - - - - - - - - -
23/05:00pm 26.8 ENE 9 12 1014.0 - - - - - - - - -
23/04:30pm 27.1 E 10 12 1014.2 - - - - - - - - -
23/04:00pm 27.5 E 10 13 1014.5 - - - - - - - - -
23/03:30pm 27.1 E 11 13 1014.6 - - - - - - - - -
23/03:00pm 26.4 E 11 13 1015.0 - - - - - - - - -
23/02:30pm 26.5 ESE 10 13 1015.3 - - - - - - - - -
23/02:00pm 26.6 ESE 11 15 1015.6 - - - - - - - - -
23/01:30pm 25.8 ESE 11 15 1015.8 - - - - - - - - -
23/01:00pm 25.8 ESE 11 13 1016.2 - - - - - - - - -
23/12:30pm 26.5 E 9 12 1016.4 - - - - - - - - -
23/12:00pm 26.5 E 10 12 1016.9 - - - - - - - - -
23/11:30am 26.5 ESE 8 10 1017.2 - - - - - - - - -
23/11:00am 26.1 ESE 7 9 1017.3 - - - - - - - - -
23/10:30am 25.7 E 7 9 1017.3 - - - - - - - - -
23/10:00am 25.8 E 7 9 1017.3 - - - - - - - - -
23/09:30am 25.4 E 7 9 1017.1 - - - - - - - - -
23/09:00am 25.1 E 8 11 1016.8 - - - - - - - - -
23/08:30am 25.1 E 8 11 1016.5 - - - - - - - - -
23/08:00am 24.7 E 8 11 1016.4 - - - - - - - - -
23/07:30am 24.6 E 9 11 1015.9 - - - - - - - - -
23/07:00am 24.3 E 8 10 1015.9 - - - - - - - - -
23/06:30am 24.5 E 9 11 1015.5 - - - - - - - - -
23/06:00am 24.4 E 9 11 1015.2 - - - - - - - - -
23/05:30am 24.3 ENE 9 11 1014.8 - - - - - - - - -
23/05:00am 24.5 E 8 10 1014.8 - - - - - - - - -
23/04:30am 24.5 E 7 9 1014.8 - - - - - - - - -
23/04:00am 24.5 E 8 9 1014.8 - - - - - - - - -
23/03:30am 24.8 E 8 9 1014.7 - - - - - - - - -
23/03:00am 24.6 E 8 9 1014.9 - - - - - - - - -
23/02:30am 24.8 ENE 8 9 1014.9 - - - - - - - - -
23/02:00am 24.7 ENE 8 10 1015.0 - - - - - - - - -
23/01:30am 24.8 ENE 8 10 1015.0 - - - - - - - - -
23/01:00am 25.0 ENE 8 11 1015.2 - - - - - - - - -
23/12:30am 25.1 ENE 8 9 1015.4 - - - - - - - - -
23/12:00am 25.1 ENE 6 7 1015.6 - - - - - - - - -
 
Date/Time
CST
Temp

°C
Wind Pressure Rain
since 9am
mm
Weather Cloud Vis
km
Sea
Height
m
Swell
Dir
 
Speed
knots
Gust
knots
hPa Trend Height
m
Period
s
Dir
22/11:30pm 25.1 ENE 5 6 1015.6 - - - - - - - - -
22/11:00pm 25.2 NE 6 8 1015.7 - - - - - - - - -
22/10:30pm 25.1 NNE 7 8 1015.5 - - - - - - - - -
22/10:00pm 25.2 NNE 7 9 1015.5 - - - - - - - - -
22/09:30pm 25.1 NE 8 10 1015.3 - - - - - - - - -
22/09:00pm 25.2 NE 8 11 1015.1 - - - - - - - - -
22/08:30pm 25.2 NE 9 11 1014.5 - - - - - - - - -
22/08:00pm 25.2 NE 10 12 1014.3 - - - - - - - - -
22/07:30pm 25.2 NE 11 13 1013.9 - - - - - - - - -
22/07:00pm 25.3 ENE 11 14 1013.7 - - - - - - - - -
22/06:30pm 25.5 ENE 12 15 1013.4 - - - - - - - - -
22/06:00pm 25.9 E 12 15 1013.3 - - - - - - - - -
22/05:30pm 26.2 E 13 16 1013.0 - - - - - - - - -
22/05:00pm 26.3 E 15 18 1013.1 - - - - - - - - -
22/04:30pm 26.4 E 14 18 1012.9 - - - - - - - - -
22/04:00pm 27.2 E 15 19 1013.1 - - - - - - - - -
22/03:30pm 26.6 E 14 17 1013.0 - - - - - - - - -
22/03:00pm 26.6 E 16 19 1013.5 - - - - - - - - -
22/02:30pm 26.8 E 15 20 1014.0 - - - - - - - - -
22/02:00pm 26.6 E 16 21 1014.5 - - - - - - - - -
22/01:30pm 26.3 E 17 21 1014.8 - - - - - - - - -
22/01:00pm 26.4 E 17 21 1015.4 - - - - - - - - -
22/12:30pm 27.0 E 18 22 1015.6 - - - - - - - - -
22/12:00pm 27.1 E 17 22 1016.0 - - - - - - - - -
22/11:30am 26.8 E 15 19 1016.2 - - - - - - - - -
22/11:00am 26.9 E 12 14 1016.4 - - - - - - - - -
22/10:30am 26.9 E 11 14 1016.4 - - - - - - - - -
22/10:00am 26.6 E 11 14 1016.5 - - - - - - - - -
22/09:30am 26.6 E 10 12 1016.3 - - - - - - - - -
22/09:00am 26.2 E 10 11 1016.3 - - - - - - - - -
22/08:30am 25.9 E 10 11 1015.9 - - - - - - - - -
22/08:00am 25.6 ENE 10 12 1015.7 - - - - - - - - -
22/07:30am 25.4 ENE 10 12 1015.2 - - - - - - - - -
22/07:00am 25.1 E 10 13 1015.0 - - - - - - - - -
22/06:30am 25.3 ENE 9 10 1014.5 - - - - - - - - -
22/06:00am 25.3 ENE 9 11 1014.2 - - - - - - - - -
22/05:30am 25.2 ENE 10 12 1013.9 - - - - - - - - -
22/05:00am 25.2 NE 10 12 1013.9 - - - - - - - - -
22/04:30am 25.0 NE 11 13 1013.7 - - - - - - - - -
22/04:00am 25.0 NE 10 13 1013.8 - - - - - - - - -
22/03:30am 25.0 ENE 11 14 1014.0 - - - - - - - - -
22/03:00am 25.0 ENE 11 13 1014.3 - - - - - - - - -
22/02:30am 25.1 NE 11 15 1014.4 - - - - - - - - -
22/02:00am 25.0 NE 12 15 1014.6 - - - - - - - - -
22/01:30am 24.9 NE 12 14 1014.6 - - - - - - - - -
22/01:00am 24.9 NE 11 13 1014.8 - - - - - - - - -
22/12:30am 25.0 NE 11 13 1014.9 - - - - - - - - -
22/12:00am 25.2 NE 10 12 1015.0 - - - - - - - - -
 
Date/Time
CST
Temp

°C
Wind Pressure Rain
since 9am
mm
Weather Cloud Vis
km
Sea
Height
m
Swell
Dir
 
Speed
knots
Gust
knots
hPa Trend Height
m
Period
s
Dir
21/11:30pm 25.1 NE 9 11 1015.0 - - - - - - - - -
21/11:00pm 25.1 NNE 10 11 1015.1 - - - - - - - - -
21/10:30pm 25.2 NE 10 13 1015.1 - - - - - - - - -
21/10:00pm 25.4 NE 10 13 1015.2 - - - - - - - - -
21/09:30pm 25.5 NE 9 11 1015.0 - - - - - - - - -
21/09:00pm 25.6 ENE 10 12 1015.0 - - - - - - - - -
21/08:30pm 25.9 ENE 11 12 1014.6 - - - - - - - - -
21/08:00pm 26.0 ENE 11 13 1014.4 - - - - - - - - -
21/07:30pm 26.1 E 11 13 1013.9 - - - - - - - - -
21/07:00pm 25.9 E 11 12 1013.8 - - - - - - - - -
21/06:30pm 26.2 E 10 13 1013.6 - - - - - - - - -
21/06:00pm 26.6 E 11 13 1013.4 - - - - - - - - -
21/05:30pm 26.4 E 11 13 1013.1 - - - - - - - - -
21/05:00pm 26.9 E 9 12 1012.9 - - - - - - - - -
21/04:30pm 27.3 ESE 8 11 1012.8 - - - - - - - - -
21/04:00pm 26.8 ESE 8 11 1013.1 - - - - - - - - -
21/03:30pm 26.7 ESE 8 9 1013.1 - - - - - - - - -
21/03:00pm 26.8 SE 7 8 1013.5 - - - - - - - - -
21/02:30pm 26.6 ESE 7 8 1013.8 - - - - - - - - -
21/02:00pm 27.3 E 6 8 1014.2 - - - - - - - - -
21/01:30pm 27.3 SE 7 8 1014.5 - - - - - - - - -
21/01:00pm 27.2 ESE 6 8 1015.0 - - - - - - - - -
21/12:30pm 27.0 ESE 6 8 1015.1 - - - - - - - - -
21/12:00pm 26.4 ESE 7 9 1015.5 - - - - - - - - -
21/11:30am 27.1 E 7 9 1015.7 - - - - - - - - -
21/11:00am 27.1 E 7 9 1015.8 - - - - - - - - -
21/10:30am 26.8 E 6 8 1015.6 - - - - - - - - -
21/10:00am 26.3 E 7 9 1015.7 - - - - - - - - -
21/09:30am 26.1 E 8 9 1015.4 - - - - - - - - -
21/09:00am 25.8 E 7 11 1015.2 - - - - - - - - -
21/08:30am 25.6 E 7 10 1014.8 - - - - - - - - -
21/08:00am 25.2 E 8 10 1014.6 - - - - - - - - -
21/07:30am 24.7 E 9 11 1014.0 - - - - - - - - -
21/07:00am 24.8 E 9 11 1013.6 - - - - - - - - -
21/06:30am 24.7 ESE 9 11 1013.1 - - - - - - - - -
21/06:00am 24.8 E 9 10 1013.2 - - - - - - - - -
21/05:30am 24.8 E 8 11 1013.0 - - - - - - - - -
21/05:00am 25.0 E 8 10 1013.0 - - - - - - - - -
21/04:30am 24.9 E 7 9 1012.8 - - - - - - - - -

Other Formats:

Comma delimited format used in spreadsheet applications
http://www.bom.gov.au/fwo/IDD60701/IDD60701.94103.axf

JavaScript Object Notation format (JSON) in row-major order
http://www.bom.gov.au/fwo/IDD60701/IDD60701.94103.json